sensor_id;sensor_type;location;lat;lon;timestamp;P1;durP1;ratioP1;P2;durP2;ratioP2
52186;SDS011;38161;53.020;6.598;2022-11-30T00:03:46;39.95;;;22.75;;
52186;SDS011;38161;53.020;6.598;2022-11-30T00:06:12;38.13;;;23.58;;
52186;SDS011;38161;53.020;6.598;2022-11-30T00:08:40;40.00;;;23.75;;
52186;SDS011;38161;53.020;6.598;2022-11-30T00:11:07;39.38;;;23.52;;
52186;SDS011;38161;53.020;6.598;2022-11-30T00:13:37;34.67;;;20.80;;
52186;SDS011;38161;53.020;6.598;2022-11-30T00:16:03;41.53;;;22.90;;
52186;SDS011;38161;53.020;6.598;2022-11-30T00:18:30;39.95;;;23.48;;
52186;SDS011;38161;53.020;6.598;2022-11-30T00:20:59;37.92;;;21.77;;
52186;SDS011;38161;53.020;6.598;2022-11-30T00:23:30;39.03;;;23.92;;
52186;SDS011;38161;53.020;6.598;2022-11-30T00:26:03;41.65;;;22.55;;
52186;SDS011;38161;53.020;6.598;2022-11-30T00:28:31;43.35;;;24.70;;
52186;SDS011;38161;53.020;6.598;2022-11-30T00:33:27;42.33;;;23.08;;
52186;SDS011;38161;53.020;6.598;2022-11-30T00:35:59;47.22;;;23.63;;
52186;SDS011;38161;53.020;6.598;2022-11-30T00:38:27;41.83;;;21.95;;
52186;SDS011;38161;53.020;6.598;2022-11-30T00:40:53;45.67;;;24.37;;
52186;SDS011;38161;53.020;6.598;2022-11-30T00:43:20;44.47;;;23.88;;
52186;SDS011;38161;53.020;6.598;2022-11-30T00:45:46;44.03;;;24.10;;
52186;SDS011;38161;53.020;6.598;2022-11-30T00:48:11;43.73;;;23.87;;
52186;SDS011;38161;53.020;6.598;2022-11-30T00:50:37;41.50;;;22.63;;
52186;SDS011;38161;53.020;6.598;2022-11-30T00:53:03;46.07;;;22.97;;
52186;SDS011;38161;53.020;6.598;2022-11-30T00:55:29;40.70;;;22.17;;
52186;SDS011;38161;53.020;6.598;2022-11-30T00:57:56;44.17;;;23.10;;
52186;SDS011;38161;53.020;6.598;2022-11-30T01:00:22;40.20;;;21.37;;
52186;SDS011;38161;53.020;6.598;2022-11-30T01:02:48;44.13;;;22.83;;
52186;SDS011;38161;53.020;6.598;2022-11-30T01:05:18;51.20;;;26.13;;
52186;SDS011;38161;53.020;6.598;2022-11-30T01:07:44;46.37;;;24.43;;
52186;SDS011;38161;53.020;6.598;2022-11-30T01:10:10;47.00;;;24.77;;
52186;SDS011;38161;53.020;6.598;2022-11-30T01:12:35;47.47;;;25.43;;
52186;SDS011;38161;53.020;6.598;2022-11-30T01:15:01;49.53;;;25.47;;
52186;SDS011;38161;53.020;6.598;2022-11-30T01:17:27;50.95;;;26.88;;
52186;SDS011;38161;53.020;6.598;2022-11-30T01:19:53;49.37;;;25.60;;
52186;SDS011;38161;53.020;6.598;2022-11-30T01:22:18;40.20;;;22.97;;
52186;SDS011;38161;53.020;6.598;2022-11-30T01:24:44;43.30;;;24.13;;
52186;SDS011;38161;53.020;6.598;2022-11-30T01:27:10;45.80;;;23.83;;
52186;SDS011;38161;53.020;6.598;2022-11-30T01:29:35;41.93;;;25.43;;
52186;SDS011;38161;53.020;6.598;2022-11-30T01:32:01;38.30;;;23.27;;
52186;SDS011;38161;53.020;6.598;2022-11-30T01:34:27;44.13;;;24.93;;
52186;SDS011;38161;53.020;6.598;2022-11-30T01:36:52;43.30;;;23.93;;
52186;SDS011;38161;53.020;6.598;2022-11-30T01:39:18;42.40;;;23.77;;
52186;SDS011;38161;53.020;6.598;2022-11-30T01:41:44;42.50;;;23.83;;
52186;SDS011;38161;53.020;6.598;2022-11-30T01:46:39;45.72;;;23.88;;
52186;SDS011;38161;53.020;6.598;2022-11-30T01:49:24;43.05;;;23.15;;
52186;SDS011;38161;53.020;6.598;2022-11-30T01:51:56;42.47;;;24.42;;
52186;SDS011;38161;53.020;6.598;2022-11-30T01:54:25;38.78;;;22.42;;
52186;SDS011;38161;53.020;6.598;2022-11-30T01:57:01;41.80;;;23.50;;
52186;SDS011;38161;53.020;6.598;2022-11-30T01:59:39;44.60;;;23.25;;
52186;SDS011;38161;53.020;6.598;2022-11-30T02:02:05;42.87;;;25.00;;
52186;SDS011;38161;53.020;6.598;2022-11-30T02:04:32;44.78;;;24.15;;
52186;SDS011;38161;53.020;6.598;2022-11-30T02:07:00;39.42;;;24.08;;
52186;SDS011;38161;53.020;6.598;2022-11-30T02:09:29;40.80;;;23.67;;
52186;SDS011;38161;53.020;6.598;2022-11-30T02:12:00;37.42;;;22.85;;
52186;SDS011;38161;53.020;6.598;2022-11-30T02:14:32;38.00;;;22.92;;
52186;SDS011;38161;53.020;6.598;2022-11-30T02:28:20;36.08;;;22.15;;
52186;SDS011;38161;53.020;6.598;2022-11-30T02:31:09;39.33;;;23.33;;
52186;SDS011;38161;53.020;6.598;2022-11-30T02:33:37;38.20;;;23.00;;
52186;SDS011;38161;53.020;6.598;2022-11-30T02:36:04;39.33;;;23.52;;
52186;SDS011;38161;53.020;6.598;2022-11-30T02:38:32;42.63;;;24.77;;
52186;SDS011;38161;53.020;6.598;2022-11-30T02:40:58;37.95;;;23.00;;
52186;SDS011;38161;53.020;6.598;2022-11-30T02:43:24;40.43;;;22.33;;
52186;SDS011;38161;53.020;6.598;2022-11-30T02:48:30;39.97;;;24.10;;
52186;SDS011;38161;53.020;6.598;2022-11-30T02:51:21;39.00;;;23.33;;
52186;SDS011;38161;53.020;6.598;2022-11-30T02:53:50;44.40;;;24.25;;
52186;SDS011;38161;53.020;6.598;2022-11-30T02:56:16;39.22;;;24.42;;
52186;SDS011;38161;53.020;6.598;2022-11-30T02:58:43;42.00;;;23.98;;
52186;SDS011;38161;53.020;6.598;2022-11-30T03:01:09;42.22;;;25.08;;
52186;SDS011;38161;53.020;6.598;2022-11-30T03:03:35;39.90;;;24.63;;
52186;SDS011;38161;53.020;6.598;2022-11-30T03:06:01;43.03;;;24.33;;
52186;SDS011;38161;53.020;6.598;2022-11-30T03:08:26;41.93;;;24.77;;
52186;SDS011;38161;53.020;6.598;2022-11-30T03:10:52;42.20;;;24.83;;
52186;SDS011;38161;53.020;6.598;2022-11-30T03:13:18;37.70;;;23.83;;
52186;SDS011;38161;53.020;6.598;2022-11-30T03:15:43;45.73;;;27.13;;
52186;SDS011;38161;53.020;6.598;2022-11-30T03:18:09;41.38;;;25.77;;
52186;SDS011;38161;53.020;6.598;2022-11-30T03:20:38;48.90;;;26.97;;
52186;SDS011;38161;53.020;6.598;2022-11-30T03:23:05;50.47;;;25.92;;
52186;SDS011;38161;53.020;6.598;2022-11-30T03:25:31;43.53;;;26.07;;
52186;SDS011;38161;53.020;6.598;2022-11-30T03:27:58;40.37;;;24.70;;
52186;SDS011;38161;53.020;6.598;2022-11-30T03:30:25;43.15;;;24.65;;
52186;SDS011;38161;53.020;6.598;2022-11-30T03:32:50;40.67;;;24.50;;
52186;SDS011;38161;53.020;6.598;2022-11-30T03:35:16;43.17;;;25.38;;
52186;SDS011;38161;53.020;6.598;2022-11-30T03:37:42;42.05;;;24.42;;
52186;SDS011;38161;53.020;6.598;2022-11-30T03:40:09;47.03;;;26.33;;
52186;SDS011;38161;53.020;6.598;2022-11-30T03:42:35;41.85;;;23.95;;
52186;SDS011;38161;53.020;6.598;2022-11-30T03:45:01;42.58;;;24.92;;
52186;SDS011;38161;53.020;6.598;2022-11-30T03:47:27;40.80;;;25.05;;
52186;SDS011;38161;53.020;6.598;2022-11-30T03:49:53;41.60;;;24.93;;
52186;SDS011;38161;53.020;6.598;2022-11-30T03:52:18;40.40;;;23.50;;
52186;SDS011;38161;53.020;6.598;2022-11-30T03:54:44;45.13;;;26.33;;
52186;SDS011;38161;53.020;6.598;2022-11-30T03:57:10;43.17;;;25.87;;
52186;SDS011;38161;53.020;6.598;2022-11-30T03:59:35;46.60;;;25.90;;
52186;SDS011;38161;53.020;6.598;2022-11-30T04:02:01;40.30;;;24.20;;
52186;SDS011;38161;53.020;6.598;2022-11-30T04:04:27;40.17;;;23.73;;
52186;SDS011;38161;53.020;6.598;2022-11-30T04:06:52;45.70;;;24.70;;
52186;SDS011;38161;53.020;6.598;2022-11-30T04:09:18;41.43;;;24.17;;
52186;SDS011;38161;53.020;6.598;2022-11-30T04:11:44;42.10;;;23.77;;
52186;SDS011;38161;53.020;6.598;2022-11-30T04:14:09;34.47;;;21.87;;
52186;SDS011;38161;53.020;6.598;2022-11-30T04:16:35;38.23;;;23.90;;
52186;SDS011;38161;53.020;6.598;2022-11-30T04:19:01;44.50;;;24.30;;
52186;SDS011;38161;53.020;6.598;2022-11-30T04:21:27;46.40;;;25.83;;
52186;SDS011;38161;53.020;6.598;2022-11-30T04:23:53;44.77;;;25.73;;
52186;SDS011;38161;53.020;6.598;2022-11-30T04:26:19;45.17;;;24.77;;
52186;SDS011;38161;53.020;6.598;2022-11-30T04:28:45;52.00;;;25.42;;
52186;SDS011;38161;53.020;6.598;2022-11-30T04:31:11;44.33;;;24.50;;
52186;SDS011;38161;53.020;6.598;2022-11-30T04:33:36;43.60;;;24.35;;
52186;SDS011;38161;53.020;6.598;2022-11-30T04:36:03;48.53;;;25.30;;
52186;SDS011;38161;53.020;6.598;2022-11-30T04:38:30;43.58;;;24.83;;
52186;SDS011;38161;53.020;6.598;2022-11-30T04:43:22;40.47;;;23.02;;
52186;SDS011;38161;53.020;6.598;2022-11-30T04:45:49;42.70;;;22.70;;
52186;SDS011;38161;53.020;6.598;2022-11-30T04:48:15;41.25;;;22.73;;
52186;SDS011;38161;53.020;6.598;2022-11-30T04:53:08;41.83;;;23.00;;
52186;SDS011;38161;53.020;6.598;2022-11-30T04:58:01;43.17;;;22.08;;
52186;SDS011;38161;53.020;6.598;2022-11-30T05:00:28;46.03;;;23.05;;
52186;SDS011;38161;53.020;6.598;2022-11-30T05:02:54;39.87;;;22.60;;
52186;SDS011;38161;53.020;6.598;2022-11-30T05:05:20;45.20;;;22.83;;
52186;SDS011;38161;53.020;6.598;2022-11-30T05:07:49;43.93;;;23.70;;
52186;SDS011;38161;53.020;6.598;2022-11-30T05:10:19;46.25;;;22.90;;
52186;SDS011;38161;53.020;6.598;2022-11-30T05:12:45;47.10;;;23.10;;
52186;SDS011;38161;53.020;6.598;2022-11-30T05:15:11;44.50;;;23.23;;
52186;SDS011;38161;53.020;6.598;2022-11-30T05:17:37;44.88;;;23.80;;
52186;SDS011;38161;53.020;6.598;2022-11-30T05:20:03;49.05;;;24.27;;
52186;SDS011;38161;53.020;6.598;2022-11-30T05:22:29;46.13;;;23.05;;
52186;SDS011;38161;53.020;6.598;2022-11-30T05:24:55;53.27;;;24.57;;
52186;SDS011;38161;53.020;6.598;2022-11-30T05:27:21;48.07;;;23.43;;
52186;SDS011;38161;53.020;6.598;2022-11-30T05:29:46;49.37;;;23.30;;
52186;SDS011;38161;53.020;6.598;2022-11-30T05:32:12;55.40;;;25.47;;
52186;SDS011;38161;53.020;6.598;2022-11-30T05:34:37;51.23;;;24.87;;
52186;SDS011;38161;53.020;6.598;2022-11-30T05:37:03;45.63;;;23.33;;
52186;SDS011;38161;53.020;6.598;2022-11-30T05:39:29;45.23;;;22.13;;
52186;SDS011;38161;53.020;6.598;2022-11-30T05:41:54;51.47;;;25.23;;
52186;SDS011;38161;53.020;6.598;2022-11-30T05:44:20;53.83;;;25.83;;
52186;SDS011;38161;53.020;6.598;2022-11-30T05:46:46;49.50;;;22.37;;
52186;SDS011;38161;53.020;6.598;2022-11-30T05:49:12;52.57;;;24.27;;
52186;SDS011;38161;53.020;6.598;2022-11-30T05:51:38;46.80;;;23.27;;
52186;SDS011;38161;53.020;6.598;2022-11-30T05:54:05;53.63;;;24.60;;
52186;SDS011;38161;53.020;6.598;2022-11-30T05:56:31;46.17;;;23.20;;
52186;SDS011;38161;53.020;6.598;2022-11-30T05:58:57;54.25;;;25.10;;
52186;SDS011;38161;53.020;6.598;2022-11-30T06:01:24;54.43;;;25.27;;
52186;SDS011;38161;53.020;6.598;2022-11-30T06:03:51;53.30;;;24.50;;
52186;SDS011;38161;53.020;6.598;2022-11-30T06:06:17;49.03;;;23.87;;
52186;SDS011;38161;53.020;6.598;2022-11-30T06:08:43;55.10;;;25.40;;
52186;SDS011;38161;53.020;6.598;2022-11-30T06:11:10;53.78;;;25.45;;
52186;SDS011;38161;53.020;6.598;2022-11-30T06:13:36;55.45;;;25.48;;
52186;SDS011;38161;53.020;6.598;2022-11-30T06:16:03;51.03;;;23.70;;
52186;SDS011;38161;53.020;6.598;2022-11-30T06:18:29;45.42;;;21.38;;
52186;SDS011;38161;53.020;6.598;2022-11-30T06:21:03;50.17;;;23.65;;
52186;SDS011;38161;53.020;6.598;2022-11-30T06:23:34;51.58;;;24.80;;
52186;SDS011;38161;53.020;6.598;2022-11-30T06:26:03;55.92;;;25.35;;
52186;SDS011;38161;53.020;6.598;2022-11-30T06:28:31;50.83;;;25.13;;
52186;SDS011;38161;53.020;6.598;2022-11-30T06:31:00;48.20;;;23.98;;
52186;SDS011;38161;53.020;6.598;2022-11-30T06:33:27;54.60;;;25.85;;
52186;SDS011;38161;53.020;6.598;2022-11-30T06:35:53;49.57;;;22.93;;
52186;SDS011;38161;53.020;6.598;2022-11-30T06:38:19;51.33;;;24.15;;
52186;SDS011;38161;53.020;6.598;2022-11-30T06:40:45;50.42;;;24.00;;
52186;SDS011;38161;53.020;6.598;2022-11-30T06:43:11;42.07;;;22.10;;
52186;SDS011;38161;53.020;6.598;2022-11-30T06:45:37;45.15;;;22.98;;
52186;SDS011;38161;53.020;6.598;2022-11-30T06:48:03;44.10;;;21.70;;
52186;SDS011;38161;53.020;6.598;2022-11-30T06:50:29;49.63;;;24.13;;
52186;SDS011;38161;53.020;6.598;2022-11-30T06:52:55;46.67;;;22.70;;
52186;SDS011;38161;53.020;6.598;2022-11-30T06:55:21;50.72;;;22.65;;
52186;SDS011;38161;53.020;6.598;2022-11-30T06:57:48;45.90;;;22.65;;
52186;SDS011;38161;53.020;6.598;2022-11-30T07:00:14;45.40;;;21.52;;
52186;SDS011;38161;53.020;6.598;2022-11-30T07:02:40;44.08;;;21.92;;
52186;SDS011;38161;53.020;6.598;2022-11-30T07:05:06;46.63;;;21.83;;
52186;SDS011;38161;53.020;6.598;2022-11-30T07:07:32;41.05;;;20.95;;
52186;SDS011;38161;53.020;6.598;2022-11-30T07:09:58;41.58;;;21.25;;
52186;SDS011;38161;53.020;6.598;2022-11-30T07:12:24;39.97;;;21.10;;
52186;SDS011;38161;53.020;6.598;2022-11-30T07:14:50;45.45;;;21.67;;
52186;SDS011;38161;53.020;6.598;2022-11-30T07:17:21;41.05;;;20.08;;
52186;SDS011;38161;53.020;6.598;2022-11-30T07:19:47;40.47;;;20.20;;
52186;SDS011;38161;53.020;6.598;2022-11-30T07:22:12;36.60;;;19.43;;
52186;SDS011;38161;53.020;6.598;2022-11-30T07:24:38;41.38;;;21.17;;
52186;SDS011;38161;53.020;6.598;2022-11-30T07:27:22;37.22;;;19.33;;
52186;SDS011;38161;53.020;6.598;2022-11-30T07:29:48;34.77;;;19.07;;
52186;SDS011;38161;53.020;6.598;2022-11-30T07:32:15;35.00;;;18.67;;
52186;SDS011;38161;53.020;6.598;2022-11-30T07:34:41;35.65;;;19.40;;
52186;SDS011;38161;53.020;6.598;2022-11-30T07:37:07;34.40;;;19.40;;
52186;SDS011;38161;53.020;6.598;2022-11-30T07:39:32;32.93;;;18.00;;
52186;SDS011;38161;53.020;6.598;2022-11-30T07:41:58;33.10;;;18.53;;
52186;SDS011;38161;53.020;6.598;2022-11-30T07:44:24;32.83;;;19.40;;
52186;SDS011;38161;53.020;6.598;2022-11-30T07:46:49;32.03;;;17.77;;
52186;SDS011;38161;53.020;6.598;2022-11-30T07:49:16;31.02;;;17.83;;
52186;SDS011;38161;53.020;6.598;2022-11-30T07:51:42;34.20;;;18.03;;
52186;SDS011;38161;53.020;6.598;2022-11-30T07:54:08;34.23;;;19.13;;
52186;SDS011;38161;53.020;6.598;2022-11-30T07:56:33;26.70;;;16.35;;
52186;SDS011;38161;53.020;6.598;2022-11-30T07:59:00;30.13;;;17.23;;
52186;SDS011;38161;53.020;6.598;2022-11-30T08:01:27;29.92;;;16.77;;
52186;SDS011;38161;53.020;6.598;2022-11-30T08:03:55;33.22;;;17.73;;
52186;SDS011;38161;53.020;6.598;2022-11-30T08:06:22;30.67;;;16.95;;
52186;SDS011;38161;53.020;6.598;2022-11-30T08:08:51;28.13;;;16.35;;
52186;SDS011;38161;53.020;6.598;2022-11-30T08:11:22;28.08;;;16.52;;
52186;SDS011;38161;53.020;6.598;2022-11-30T08:13:49;30.55;;;16.35;;
52186;SDS011;38161;53.020;6.598;2022-11-30T08:16:19;28.80;;;16.93;;
52186;SDS011;38161;53.020;6.598;2022-11-30T08:18:47;28.42;;;17.23;;
52186;SDS011;38161;53.020;6.598;2022-11-30T08:21:15;28.58;;;16.45;;
52186;SDS011;38161;53.020;6.598;2022-11-30T08:23:43;30.38;;;17.27;;
52186;SDS011;38161;53.020;6.598;2022-11-30T08:26:14;30.50;;;17.13;;
52186;SDS011;38161;53.020;6.598;2022-11-30T08:28:42;31.60;;;17.58;;
52186;SDS011;38161;53.020;6.598;2022-11-30T08:31:10;24.42;;;16.13;;
52186;SDS011;38161;53.020;6.598;2022-11-30T08:33:37;29.48;;;17.00;;
52186;SDS011;38161;53.020;6.598;2022-11-30T08:36:07;24.60;;;15.37;;
52186;SDS011;38161;53.020;6.598;2022-11-30T08:38:37;25.92;;;16.00;;
52186;SDS011;38161;53.020;6.598;2022-11-30T08:41:04;22.83;;;15.15;;
52186;SDS011;38161;53.020;6.598;2022-11-30T08:43:30;24.25;;;16.33;;
52186;SDS011;38161;53.020;6.598;2022-11-30T08:45:56;23.83;;;16.65;;
52186;SDS011;38161;53.020;6.598;2022-11-30T08:48:22;26.13;;;16.60;;
52186;SDS011;38161;53.020;6.598;2022-11-30T08:50:48;25.98;;;16.25;;
52186;SDS011;38161;53.020;6.598;2022-11-30T08:53:14;26.53;;;17.20;;
52186;SDS011;38161;53.020;6.598;2022-11-30T08:55:40;25.67;;;17.07;;
52186;SDS011;38161;53.020;6.598;2022-11-30T08:58:05;25.40;;;17.00;;
52186;SDS011;38161;53.020;6.598;2022-11-30T09:00:31;23.30;;;16.30;;
52186;SDS011;38161;53.020;6.598;2022-11-30T09:02:57;24.57;;;16.07;;
52186;SDS011;38161;53.020;6.598;2022-11-30T09:05:23;26.43;;;16.57;;
52186;SDS011;38161;53.020;6.598;2022-11-30T09:07:48;25.77;;;16.43;;
52186;SDS011;38161;53.020;6.598;2022-11-30T09:10:14;27.13;;;16.47;;
52186;SDS011;38161;53.020;6.598;2022-11-30T09:12:40;23.73;;;15.33;;
52186;SDS011;38161;53.020;6.598;2022-11-30T09:15:06;26.85;;;16.17;;
52186;SDS011;38161;53.020;6.598;2022-11-30T09:17:33;22.92;;;15.88;;
52186;SDS011;38161;53.020;6.598;2022-11-30T09:19:59;22.70;;;15.23;;
52186;SDS011;38161;53.020;6.598;2022-11-30T09:22:25;23.20;;;16.13;;
52186;SDS011;38161;53.020;6.598;2022-11-30T09:27:17;22.58;;;15.20;;
52186;SDS011;38161;53.020;6.598;2022-11-30T09:29:43;26.73;;;17.07;;
52186;SDS011;38161;53.020;6.598;2022-11-30T09:32:08;27.93;;;17.83;;
52186;SDS011;38161;53.020;6.598;2022-11-30T09:34:34;30.40;;;18.90;;
52186;SDS011;38161;53.020;6.598;2022-11-30T09:37:00;27.83;;;18.03;;
52186;SDS011;38161;53.020;6.598;2022-11-30T09:39:25;32.57;;;18.53;;
52186;SDS011;38161;53.020;6.598;2022-11-30T09:44:42;27.63;;;17.50;;
52186;SDS011;38161;53.020;6.598;2022-11-30T09:49:45;29.05;;;16.95;;
52186;SDS011;38161;53.020;6.598;2022-11-30T09:54:41;26.55;;;16.98;;
52186;SDS011;38161;53.020;6.598;2022-11-30T09:57:30;31.80;;;18.35;;
52186;SDS011;38161;53.020;6.598;2022-11-30T10:04:54;26.08;;;16.77;;
52186;SDS011;38161;53.020;6.598;2022-11-30T10:07:27;29.80;;;19.33;;
52186;SDS011;38161;53.020;6.598;2022-11-30T10:16:10;30.00;;;19.05;;
52186;SDS011;38161;53.020;6.598;2022-11-30T10:23:55;31.25;;;19.35;;
52186;SDS011;38161;53.020;6.598;2022-11-30T10:26:33;35.25;;;19.98;;
52186;SDS011;38161;53.020;6.598;2022-11-30T10:29:13;29.58;;;18.17;;
52186;SDS011;38161;53.020;6.598;2022-11-30T10:31:43;29.90;;;18.95;;
52186;SDS011;38161;53.020;6.598;2022-11-30T10:34:17;30.02;;;18.38;;
52186;SDS011;38161;53.020;6.598;2022-11-30T10:36:45;31.52;;;19.42;;
52186;SDS011;38161;53.020;6.598;2022-11-30T10:39:47;28.13;;;17.90;;
52186;SDS011;38161;53.020;6.598;2022-11-30T10:45:33;30.05;;;18.75;;
52186;SDS011;38161;53.020;6.598;2022-11-30T10:48:07;32.22;;;19.92;;
52186;SDS011;38161;53.020;6.598;2022-11-30T10:50:39;29.58;;;18.77;;
52186;SDS011;38161;53.020;6.598;2022-11-30T10:53:05;33.20;;;20.38;;
52186;SDS011;38161;53.020;6.598;2022-11-30T10:55:37;32.08;;;20.42;;
52186;SDS011;38161;53.020;6.598;2022-11-30T10:58:20;34.50;;;21.15;;
52186;SDS011;38161;53.020;6.598;2022-11-30T11:03:32;37.85;;;23.35;;
52186;SDS011;38161;53.020;6.598;2022-11-30T11:08:54;33.45;;;19.35;;
52186;SDS011;38161;53.020;6.598;2022-11-30T11:11:30;38.33;;;22.07;;
52186;SDS011;38161;53.020;6.598;2022-11-30T11:14:13;33.78;;;20.38;;
52186;SDS011;38161;53.020;6.598;2022-11-30T11:19:42;34.05;;;20.55;;
52186;SDS011;38161;53.020;6.598;2022-11-30T11:24:55;38.28;;;22.73;;
52186;SDS011;38161;53.020;6.598;2022-11-30T11:27:50;35.70;;;21.90;;
52186;SDS011;38161;53.020;6.598;2022-11-30T11:30:26;36.95;;;21.65;;
52186;SDS011;38161;53.020;6.598;2022-11-30T11:33:01;40.55;;;22.80;;
52186;SDS011;38161;53.020;6.598;2022-11-30T11:35:41;35.63;;;22.25;;
52186;SDS011;38161;53.020;6.598;2022-11-30T11:38:21;37.60;;;23.00;;
52186;SDS011;38161;53.020;6.598;2022-11-30T11:43:17;39.50;;;24.30;;
52186;SDS011;38161;53.020;6.598;2022-11-30T11:45:48;41.45;;;24.35;;
52186;SDS011;38161;53.020;6.598;2022-11-30T11:48:38;41.72;;;25.17;;
52186;SDS011;38161;53.020;6.598;2022-11-30T11:51:07;47.10;;;25.67;;
52186;SDS011;38161;53.020;6.598;2022-11-30T11:53:48;43.90;;;25.70;;
52186;SDS011;38161;53.020;6.598;2022-11-30T12:01:18;37.53;;;22.88;;
52186;SDS011;38161;53.020;6.598;2022-11-30T12:04:17;42.70;;;24.10;;
52186;SDS011;38161;53.020;6.598;2022-11-30T12:06:51;37.35;;;22.73;;
52186;SDS011;38161;53.020;6.598;2022-11-30T12:09:30;39.55;;;22.80;;
52186;SDS011;38161;53.020;6.598;2022-11-30T12:12:00;39.63;;;23.05;;
52186;SDS011;38161;53.020;6.598;2022-11-30T12:14:26;37.42;;;21.70;;
52186;SDS011;38161;53.020;6.598;2022-11-30T12:17:14;32.47;;;19.90;;
52186;SDS011;38161;53.020;6.598;2022-11-30T12:25:33;42.58;;;23.58;;
52186;SDS011;38161;53.020;6.598;2022-11-30T12:28:18;39.08;;;23.52;;
52186;SDS011;38161;53.020;6.598;2022-11-30T12:31:11;38.65;;;23.55;;
52186;SDS011;38161;53.020;6.598;2022-11-30T12:34:10;39.63;;;24.15;;
52186;SDS011;38161;53.020;6.598;2022-11-30T12:40:12;36.33;;;22.30;;
52186;SDS011;38161;53.020;6.598;2022-11-30T12:42:44;41.58;;;24.45;;
52186;SDS011;38161;53.020;6.598;2022-11-30T12:45:18;41.20;;;22.35;;
52186;SDS011;38161;53.020;6.598;2022-11-30T12:53:20;42.85;;;23.35;;
52186;SDS011;38161;53.020;6.598;2022-11-30T12:59:07;39.80;;;23.48;;
52186;SDS011;38161;53.020;6.598;2022-11-30T13:05:03;40.92;;;25.52;;
52186;SDS011;38161;53.020;6.598;2022-11-30T13:07:33;42.53;;;24.95;;
52186;SDS011;38161;53.020;6.598;2022-11-30T13:12:36;40.20;;;24.52;;
52186;SDS011;38161;53.020;6.598;2022-11-30T13:15:05;40.00;;;24.33;;
52186;SDS011;38161;53.020;6.598;2022-11-30T13:17:43;46.15;;;25.05;;
52186;SDS011;38161;53.020;6.598;2022-11-30T13:20:18;39.60;;;24.17;;
52186;SDS011;38161;53.020;6.598;2022-11-30T13:22:59;38.42;;;23.58;;
52186;SDS011;38161;53.020;6.598;2022-11-30T13:25:44;41.35;;;24.73;;
52186;SDS011;38161;53.020;6.598;2022-11-30T13:33:47;40.25;;;23.88;;
52186;SDS011;38161;53.020;6.598;2022-11-30T13:36:30;40.83;;;24.08;;
52186;SDS011;38161;53.020;6.598;2022-11-30T13:41:41;41.75;;;24.75;;
52186;SDS011;38161;53.020;6.598;2022-11-30T13:46:55;45.22;;;25.85;;
52186;SDS011;38161;53.020;6.598;2022-11-30T13:49:23;41.10;;;24.65;;
52186;SDS011;38161;53.020;6.598;2022-11-30T13:51:53;41.08;;;22.83;;
52186;SDS011;38161;53.020;6.598;2022-11-30T13:59:49;43.15;;;24.30;;
52186;SDS011;38161;53.020;6.598;2022-11-30T14:07:44;39.35;;;23.38;;
52186;SDS011;38161;53.020;6.598;2022-11-30T14:15:29;45.08;;;25.92;;
52186;SDS011;38161;53.020;6.598;2022-11-30T14:26:26;41.40;;;24.38;;
52186;SDS011;38161;53.020;6.598;2022-11-30T14:28:59;44.63;;;24.90;;
52186;SDS011;38161;53.020;6.598;2022-11-30T14:31:27;43.33;;;25.77;;
52186;SDS011;38161;53.020;6.598;2022-11-30T14:34:04;44.58;;;26.25;;
52186;SDS011;38161;53.020;6.598;2022-11-30T14:39:21;43.90;;;25.40;;
52186;SDS011;38161;53.020;6.598;2022-11-30T14:41:55;44.40;;;24.90;;
52186;SDS011;38161;53.020;6.598;2022-11-30T14:44:21;43.13;;;25.87;;
52186;SDS011;38161;53.020;6.598;2022-11-30T14:46:46;47.93;;;26.93;;
52186;SDS011;38161;53.020;6.598;2022-11-30T14:49:13;48.43;;;28.33;;
52186;SDS011;38161;53.020;6.598;2022-11-30T14:51:44;46.95;;;25.90;;
52186;SDS011;38161;53.020;6.598;2022-11-30T14:56:45;44.75;;;26.58;;
52186;SDS011;38161;53.020;6.598;2022-11-30T15:01:54;46.88;;;27.60;;
52186;SDS011;38161;53.020;6.598;2022-11-30T15:04:24;46.95;;;27.40;;
52186;SDS011;38161;53.020;6.598;2022-11-30T15:06:52;50.20;;;28.42;;
52186;SDS011;38161;53.020;6.598;2022-11-30T15:09:22;50.92;;;27.55;;
52186;SDS011;38161;53.020;6.598;2022-11-30T15:11:52;43.95;;;25.95;;
52186;SDS011;38161;53.020;6.598;2022-11-30T15:14:18;49.50;;;28.75;;
52186;SDS011;38161;53.020;6.598;2022-11-30T15:16:47;51.45;;;29.23;;
52186;SDS011;38161;53.020;6.598;2022-11-30T15:19:25;52.47;;;28.92;;
52186;SDS011;38161;53.020;6.598;2022-11-30T15:21:51;46.40;;;27.27;;
52186;SDS011;38161;53.020;6.598;2022-11-30T15:24:18;44.88;;;26.52;;
52186;SDS011;38161;53.020;6.598;2022-11-30T15:26:50;51.38;;;28.67;;
52186;SDS011;38161;53.020;6.598;2022-11-30T15:29:29;47.85;;;28.13;;
52186;SDS011;38161;53.020;6.598;2022-11-30T15:31:59;45.97;;;27.70;;
52186;SDS011;38161;53.020;6.598;2022-11-30T15:34:35;50.05;;;28.33;;
52186;SDS011;38161;53.020;6.598;2022-11-30T15:37:04;52.10;;;30.75;;
52186;SDS011;38161;53.020;6.598;2022-11-30T15:39:30;55.45;;;29.42;;
52186;SDS011;38161;53.020;6.598;2022-11-30T15:41:57;56.83;;;29.88;;
52186;SDS011;38161;53.020;6.598;2022-11-30T15:50:15;50.85;;;29.45;;
52186;SDS011;38161;53.020;6.598;2022-11-30T15:52:50;52.25;;;28.38;;
52186;SDS011;38161;53.020;6.598;2022-11-30T16:03:56;53.08;;;28.95;;
52186;SDS011;38161;53.020;6.598;2022-11-30T16:06:27;60.30;;;30.27;;
52186;SDS011;38161;53.020;6.598;2022-11-30T16:08:56;52.05;;;29.10;;
52186;SDS011;38161;53.020;6.598;2022-11-30T16:11:26;53.45;;;28.27;;
52186;SDS011;38161;53.020;6.598;2022-11-30T16:13:51;50.33;;;28.87;;
52186;SDS011;38161;53.020;6.598;2022-11-30T16:16:21;49.60;;;27.87;;
52186;SDS011;38161;53.020;6.598;2022-11-30T16:18:52;44.47;;;25.88;;
52186;SDS011;38161;53.020;6.598;2022-11-30T16:21:18;53.33;;;29.60;;
52186;SDS011;38161;53.020;6.598;2022-11-30T16:26:11;50.85;;;27.02;;
52186;SDS011;38161;53.020;6.598;2022-11-30T16:28:38;49.08;;;27.25;;
52186;SDS011;38161;53.020;6.598;2022-11-30T16:31:04;50.70;;;28.97;;
52186;SDS011;38161;53.020;6.598;2022-11-30T16:33:30;46.72;;;26.98;;
52186;SDS011;38161;53.020;6.598;2022-11-30T16:35:57;53.25;;;28.50;;
52186;SDS011;38161;53.020;6.598;2022-11-30T16:38:26;51.05;;;27.95;;
52186;SDS011;38161;53.020;6.598;2022-11-30T16:40:53;50.92;;;28.13;;
52186;SDS011;38161;53.020;6.598;2022-11-30T16:43:23;49.35;;;29.17;;
52186;SDS011;38161;53.020;6.598;2022-11-30T16:45:52;52.78;;;29.35;;
52186;SDS011;38161;53.020;6.598;2022-11-30T16:48:18;50.20;;;28.90;;
52186;SDS011;38161;53.020;6.598;2022-11-30T16:50:43;50.67;;;29.10;;
52186;SDS011;38161;53.020;6.598;2022-11-30T16:53:10;52.10;;;28.63;;
52186;SDS011;38161;53.020;6.598;2022-11-30T16:55:40;47.15;;;27.88;;
52186;SDS011;38161;53.020;6.598;2022-11-30T16:58:07;45.30;;;26.70;;
52186;SDS011;38161;53.020;6.598;2022-11-30T17:00:33;52.53;;;28.13;;
52186;SDS011;38161;53.020;6.598;2022-11-30T17:03:14;49.05;;;27.60;;
52186;SDS011;38161;53.020;6.598;2022-11-30T17:05:44;50.80;;;28.70;;
52186;SDS011;38161;53.020;6.598;2022-11-30T17:08:10;49.50;;;26.58;;
52186;SDS011;38161;53.020;6.598;2022-11-30T17:10:36;47.67;;;27.90;;
52186;SDS011;38161;53.020;6.598;2022-11-30T17:13:03;50.63;;;28.27;;